sensor_id;sensor_type;location;lat;lon;timestamp;P1;durP1;ratioP1;P2;durP2;ratioP2
61252;SDS011;47127;47.516;8.596;2023-11-22T00:01:48;7.63;;;3.05;;
61252;SDS011;47127;47.516;8.596;2023-11-22T00:04:14;5.85;;;3.00;;
61252;SDS011;47127;47.516;8.596;2023-11-22T00:06:39;6.75;;;2.80;;
61252;SDS011;47127;47.516;8.596;2023-11-22T00:09:05;6.68;;;3.15;;
61252;SDS011;47127;47.516;8.596;2023-11-22T00:11:32;6.10;;;3.20;;
61252;SDS011;47127;47.516;8.596;2023-11-22T00:13:57;9.00;;;3.22;;
61252;SDS011;47127;47.516;8.596;2023-11-22T00:16:23;6.85;;;3.13;;
61252;SDS011;47127;47.516;8.596;2023-11-22T00:18:48;6.28;;;3.13;;
61252;SDS011;47127;47.516;8.596;2023-11-22T00:21:14;5.88;;;3.00;;
61252;SDS011;47127;47.516;8.596;2023-11-22T00:23:40;8.98;;;3.05;;
61252;SDS011;47127;47.516;8.596;2023-11-22T00:26:06;5.85;;;2.70;;
61252;SDS011;47127;47.516;8.596;2023-11-22T00:28:31;6.85;;;3.15;;
61252;SDS011;47127;47.516;8.596;2023-11-22T00:30:57;7.85;;;2.92;;
61252;SDS011;47127;47.516;8.596;2023-11-22T00:33:23;6.93;;;2.65;;
61252;SDS011;47127;47.516;8.596;2023-11-22T00:35:49;7.80;;;2.85;;
61252;SDS011;47127;47.516;8.596;2023-11-22T00:38:15;5.05;;;2.50;;
61252;SDS011;47127;47.516;8.596;2023-11-22T00:40:41;6.05;;;2.70;;
61252;SDS011;47127;47.516;8.596;2023-11-22T00:43:08;3.65;;;2.33;;
61252;SDS011;47127;47.516;8.596;2023-11-22T00:45:33;5.50;;;2.70;;
61252;SDS011;47127;47.516;8.596;2023-11-22T00:48:00;5.93;;;3.38;;
61252;SDS011;47127;47.516;8.596;2023-11-22T00:50:26;5.38;;;2.90;;
61252;SDS011;47127;47.516;8.596;2023-11-22T00:52:51;6.10;;;3.28;;
61252;SDS011;47127;47.516;8.596;2023-11-22T00:55:17;6.13;;;2.65;;
61252;SDS011;47127;47.516;8.596;2023-11-22T00:57:42;6.95;;;2.78;;
61252;SDS011;47127;47.516;8.596;2023-11-22T01:00:08;5.78;;;2.72;;
61252;SDS011;47127;47.516;8.596;2023-11-22T01:02:35;7.13;;;3.10;;
61252;SDS011;47127;47.516;8.596;2023-11-22T01:05:07;8.77;;;3.45;;
61252;SDS011;47127;47.516;8.596;2023-11-22T01:07:36;6.13;;;3.08;;
61252;SDS011;47127;47.516;8.596;2023-11-22T01:10:02;4.82;;;2.78;;
61252;SDS011;47127;47.516;8.596;2023-11-22T01:12:29;7.47;;;2.90;;
61252;SDS011;47127;47.516;8.596;2023-11-22T01:14:55;6.30;;;2.70;;
61252;SDS011;47127;47.516;8.596;2023-11-22T01:17:20;5.78;;;3.03;;
61252;SDS011;47127;47.516;8.596;2023-11-22T01:19:46;6.53;;;3.33;;
61252;SDS011;47127;47.516;8.596;2023-11-22T01:22:11;5.38;;;2.58;;
61252;SDS011;47127;47.516;8.596;2023-11-22T01:24:37;6.50;;;2.88;;
61252;SDS011;47127;47.516;8.596;2023-11-22T01:27:02;7.65;;;3.08;;
61252;SDS011;47127;47.516;8.596;2023-11-22T01:29:28;7.80;;;3.00;;
61252;SDS011;47127;47.516;8.596;2023-11-22T01:31:54;5.40;;;2.50;;
61252;SDS011;47127;47.516;8.596;2023-11-22T01:34:20;9.13;;;2.85;;
61252;SDS011;47127;47.516;8.596;2023-11-22T01:36:46;5.38;;;2.50;;
61252;SDS011;47127;47.516;8.596;2023-11-22T01:39:15;5.90;;;2.70;;
61252;SDS011;47127;47.516;8.596;2023-11-22T01:41:40;8.60;;;3.08;;
61252;SDS011;47127;47.516;8.596;2023-11-22T01:44:09;9.20;;;2.88;;
61252;SDS011;47127;47.516;8.596;2023-11-22T01:46:35;7.20;;;2.60;;
61252;SDS011;47127;47.516;8.596;2023-11-22T01:49:00;4.35;;;2.42;;
61252;SDS011;47127;47.516;8.596;2023-11-22T01:51:26;5.88;;;3.10;;
61252;SDS011;47127;47.516;8.596;2023-11-22T01:53:53;5.53;;;2.97;;
61252;SDS011;47127;47.516;8.596;2023-11-22T01:56:25;6.88;;;3.17;;
61252;SDS011;47127;47.516;8.596;2023-11-22T01:58:57;7.40;;;3.00;;
61252;SDS011;47127;47.516;8.596;2023-11-22T02:01:25;6.55;;;3.17;;
61252;SDS011;47127;47.516;8.596;2023-11-22T02:03:51;8.07;;;3.40;;
61252;SDS011;47127;47.516;8.596;2023-11-22T02:06:18;6.38;;;3.10;;
61252;SDS011;47127;47.516;8.596;2023-11-22T02:08:46;6.47;;;3.35;;
61252;SDS011;47127;47.516;8.596;2023-11-22T02:11:12;8.05;;;3.30;;
61252;SDS011;47127;47.516;8.596;2023-11-22T02:13:37;5.68;;;3.03;;
61252;SDS011;47127;47.516;8.596;2023-11-22T02:16:03;5.72;;;3.10;;
61252;SDS011;47127;47.516;8.596;2023-11-22T02:18:29;7.72;;;3.63;;
61252;SDS011;47127;47.516;8.596;2023-11-22T02:20:54;7.00;;;3.72;;
61252;SDS011;47127;47.516;8.596;2023-11-22T02:23:21;7.57;;;3.42;;
61252;SDS011;47127;47.516;8.596;2023-11-22T02:25:46;6.35;;;3.22;;
61252;SDS011;47127;47.516;8.596;2023-11-22T02:28:12;6.57;;;3.17;;
61252;SDS011;47127;47.516;8.596;2023-11-22T02:30:38;6.07;;;3.05;;
61252;SDS011;47127;47.516;8.596;2023-11-22T02:33:04;6.65;;;3.50;;
61252;SDS011;47127;47.516;8.596;2023-11-22T02:35:30;6.22;;;2.88;;
61252;SDS011;47127;47.516;8.596;2023-11-22T02:37:59;7.50;;;3.45;;
61252;SDS011;47127;47.516;8.596;2023-11-22T02:40:25;8.38;;;3.40;;
61252;SDS011;47127;47.516;8.596;2023-11-22T02:42:51;8.05;;;3.47;;
61252;SDS011;47127;47.516;8.596;2023-11-22T02:45:19;7.28;;;3.88;;
61252;SDS011;47127;47.516;8.596;2023-11-22T02:47:48;6.38;;;3.72;;
61252;SDS011;47127;47.516;8.596;2023-11-22T02:50:14;6.32;;;3.15;;
61252;SDS011;47127;47.516;8.596;2023-11-22T02:52:41;7.90;;;3.90;;
61252;SDS011;47127;47.516;8.596;2023-11-22T02:55:07;6.13;;;3.50;;
61252;SDS011;47127;47.516;8.596;2023-11-22T02:57:36;6.43;;;3.03;;
61252;SDS011;47127;47.516;8.596;2023-11-22T03:00:05;8.52;;;3.85;;
61252;SDS011;47127;47.516;8.596;2023-11-22T03:02:32;7.20;;;3.58;;
61252;SDS011;47127;47.516;8.596;2023-11-22T03:04:58;8.70;;;3.55;;
61252;SDS011;47127;47.516;8.596;2023-11-22T03:07:25;7.10;;;3.45;;
61252;SDS011;47127;47.516;8.596;2023-11-22T03:09:51;8.48;;;3.30;;
61252;SDS011;47127;47.516;8.596;2023-11-22T03:12:18;6.75;;;3.47;;
61252;SDS011;47127;47.516;8.596;2023-11-22T03:14:45;9.32;;;3.40;;
61252;SDS011;47127;47.516;8.596;2023-11-22T03:17:16;6.40;;;3.05;;
61252;SDS011;47127;47.516;8.596;2023-11-22T03:19:42;8.10;;;3.28;;
61252;SDS011;47127;47.516;8.596;2023-11-22T03:22:09;7.68;;;3.47;;
61252;SDS011;47127;47.516;8.596;2023-11-22T03:24:35;7.45;;;3.40;;
61252;SDS011;47127;47.516;8.596;2023-11-22T03:27:02;7.47;;;3.45;;
61252;SDS011;47127;47.516;8.596;2023-11-22T03:29:27;8.07;;;3.53;;
61252;SDS011;47127;47.516;8.596;2023-11-22T03:31:54;9.20;;;3.90;;
61252;SDS011;47127;47.516;8.596;2023-11-22T03:34:20;6.85;;;3.25;;
61252;SDS011;47127;47.516;8.596;2023-11-22T03:36:46;9.32;;;4.10;;
61252;SDS011;47127;47.516;8.596;2023-11-22T03:39:11;6.82;;;3.25;;
61252;SDS011;47127;47.516;8.596;2023-11-22T03:41:39;6.47;;;3.28;;
61252;SDS011;47127;47.516;8.596;2023-11-22T03:44:05;6.43;;;3.40;;
61252;SDS011;47127;47.516;8.596;2023-11-22T03:46:37;7.20;;;3.35;;
61252;SDS011;47127;47.516;8.596;2023-11-22T03:49:06;7.75;;;3.42;;
61252;SDS011;47127;47.516;8.596;2023-11-22T03:51:32;7.72;;;3.25;;
61252;SDS011;47127;47.516;8.596;2023-11-22T03:53:58;12.57;;;4.20;;
61252;SDS011;47127;47.516;8.596;2023-11-22T03:56:25;6.57;;;3.40;;
61252;SDS011;47127;47.516;8.596;2023-11-22T03:58:52;6.90;;;3.67;;
61252;SDS011;47127;47.516;8.596;2023-11-22T04:01:17;8.93;;;4.07;;
61252;SDS011;47127;47.516;8.596;2023-11-22T04:03:44;9.10;;;3.72;;
61252;SDS011;47127;47.516;8.596;2023-11-22T04:06:10;8.27;;;3.95;;
61252;SDS011;47127;47.516;8.596;2023-11-22T04:08:35;6.93;;;3.83;;
61252;SDS011;47127;47.516;8.596;2023-11-22T04:11:03;7.50;;;4.13;;
61252;SDS011;47127;47.516;8.596;2023-11-22T04:13:28;11.45;;;4.43;;
61252;SDS011;47127;47.516;8.596;2023-11-22T04:15:55;6.32;;;3.53;;
61252;SDS011;47127;47.516;8.596;2023-11-22T04:18:21;6.80;;;3.63;;
61252;SDS011;47127;47.516;8.596;2023-11-22T04:20:46;12.13;;;4.10;;
61252;SDS011;47127;47.516;8.596;2023-11-22T04:23:13;7.85;;;3.47;;
61252;SDS011;47127;47.516;8.596;2023-11-22T04:25:39;5.20;;;2.90;;
61252;SDS011;47127;47.516;8.596;2023-11-22T04:28:06;7.70;;;3.90;;
61252;SDS011;47127;47.516;8.596;2023-11-22T04:30:33;9.50;;;4.20;;
61252;SDS011;47127;47.516;8.596;2023-11-22T04:32:59;12.55;;;4.07;;
61252;SDS011;47127;47.516;8.596;2023-11-22T04:35:25;7.78;;;4.20;;
61252;SDS011;47127;47.516;8.596;2023-11-22T04:37:50;8.82;;;3.95;;
61252;SDS011;47127;47.516;8.596;2023-11-22T04:40:16;12.35;;;4.05;;
61252;SDS011;47127;47.516;8.596;2023-11-22T04:42:42;10.10;;;4.30;;
61252;SDS011;47127;47.516;8.596;2023-11-22T04:45:08;9.95;;;4.57;;
61252;SDS011;47127;47.516;8.596;2023-11-22T04:47:35;9.25;;;4.70;;
61252;SDS011;47127;47.516;8.596;2023-11-22T04:50:01;9.05;;;4.10;;
61252;SDS011;47127;47.516;8.596;2023-11-22T04:52:26;8.45;;;4.20;;
61252;SDS011;47127;47.516;8.596;2023-11-22T04:54:52;8.77;;;4.13;;
61252;SDS011;47127;47.516;8.596;2023-11-22T04:57:17;9.32;;;4.30;;
61252;SDS011;47127;47.516;8.596;2023-11-22T04:59:43;8.02;;;4.05;;
61252;SDS011;47127;47.516;8.596;2023-11-22T05:02:08;12.10;;;4.35;;
61252;SDS011;47127;47.516;8.596;2023-11-22T05:04:35;7.00;;;3.65;;
61252;SDS011;47127;47.516;8.596;2023-11-22T05:07:01;9.18;;;4.30;;
61252;SDS011;47127;47.516;8.596;2023-11-22T05:09:28;10.52;;;5.10;;
61252;SDS011;47127;47.516;8.596;2023-11-22T05:11:53;8.63;;;4.00;;
61252;SDS011;47127;47.516;8.596;2023-11-22T05:14:19;8.57;;;3.70;;
61252;SDS011;47127;47.516;8.596;2023-11-22T05:16:44;8.05;;;3.45;;
61252;SDS011;47127;47.516;8.596;2023-11-22T05:19:10;9.13;;;4.03;;
61252;SDS011;47127;47.516;8.596;2023-11-22T05:21:36;9.15;;;4.13;;
61252;SDS011;47127;47.516;8.596;2023-11-22T05:24:01;9.00;;;3.90;;
61252;SDS011;47127;47.516;8.596;2023-11-22T05:26:27;10.80;;;4.18;;
61252;SDS011;47127;47.516;8.596;2023-11-22T05:28:53;6.35;;;3.40;;
61252;SDS011;47127;47.516;8.596;2023-11-22T05:31:19;6.95;;;3.70;;
61252;SDS011;47127;47.516;8.596;2023-11-22T05:33:45;8.63;;;4.20;;
61252;SDS011;47127;47.516;8.596;2023-11-22T05:36:11;8.32;;;4.20;;
61252;SDS011;47127;47.516;8.596;2023-11-22T05:38:37;10.45;;;4.50;;
61252;SDS011;47127;47.516;8.596;2023-11-22T05:41:03;11.75;;;4.40;;
61252;SDS011;47127;47.516;8.596;2023-11-22T05:43:28;9.07;;;4.35;;
61252;SDS011;47127;47.516;8.596;2023-11-22T05:45:54;9.48;;;3.90;;
61252;SDS011;47127;47.516;8.596;2023-11-22T05:48:20;10.95;;;5.10;;
61252;SDS011;47127;47.516;8.596;2023-11-22T05:50:46;10.65;;;5.03;;
61252;SDS011;47127;47.516;8.596;2023-11-22T05:53:12;10.18;;;4.75;;
61252;SDS011;47127;47.516;8.596;2023-11-22T05:55:44;9.23;;;4.18;;
61252;SDS011;47127;47.516;8.596;2023-11-22T05:58:10;11.20;;;4.60;;
61252;SDS011;47127;47.516;8.596;2023-11-22T06:00:36;10.88;;;4.00;;
61252;SDS011;47127;47.516;8.596;2023-11-22T06:03:03;8.93;;;4.63;;
61252;SDS011;47127;47.516;8.596;2023-11-22T06:05:29;8.35;;;3.70;;
61252;SDS011;47127;47.516;8.596;2023-11-22T06:07:55;10.40;;;4.07;;
61252;SDS011;47127;47.516;8.596;2023-11-22T06:10:21;7.93;;;3.45;;
61252;SDS011;47127;47.516;8.596;2023-11-22T06:12:47;11.65;;;4.38;;
61252;SDS011;47127;47.516;8.596;2023-11-22T06:15:13;10.65;;;4.63;;
61252;SDS011;47127;47.516;8.596;2023-11-22T06:17:38;9.95;;;4.40;;
61252;SDS011;47127;47.516;8.596;2023-11-22T06:20:04;9.13;;;3.63;;
61252;SDS011;47127;47.516;8.596;2023-11-22T06:22:31;3.38;;;1.73;;
61252;SDS011;47127;47.516;8.596;2023-11-22T06:24:57;4.03;;;1.90;;
61252;SDS011;47127;47.516;8.596;2023-11-22T06:27:23;3.95;;;1.77;;
61252;SDS011;47127;47.516;8.596;2023-11-22T06:29:48;2.80;;;1.40;;
61252;SDS011;47127;47.516;8.596;2023-11-22T06:32:14;2.30;;;1.20;;
61252;SDS011;47127;47.516;8.596;2023-11-22T06:34:39;3.92;;;0.90;;
61252;SDS011;47127;47.516;8.596;2023-11-22T06:37:05;1.80;;;0.90;;
61252;SDS011;47127;47.516;8.596;2023-11-22T06:39:33;1.75;;;1.00;;
61252;SDS011;47127;47.516;8.596;2023-11-22T06:42:00;1.15;;;0.70;;
61252;SDS011;47127;47.516;8.596;2023-11-22T06:44:25;1.38;;;0.70;;
61252;SDS011;47127;47.516;8.596;2023-11-22T06:46:51;2.55;;;1.13;;
61252;SDS011;47127;47.516;8.596;2023-11-22T06:49:18;1.75;;;0.95;;
61252;SDS011;47127;47.516;8.596;2023-11-22T06:51:44;2.28;;;1.08;;
61252;SDS011;47127;47.516;8.596;2023-11-22T06:54:09;1.50;;;0.75;;
61252;SDS011;47127;47.516;8.596;2023-11-22T06:56:35;2.60;;;0.88;;
61252;SDS011;47127;47.516;8.596;2023-11-22T06:59:01;2.53;;;1.00;;
61252;SDS011;47127;47.516;8.596;2023-11-22T07:01:26;2.22;;;1.00;;
61252;SDS011;47127;47.516;8.596;2023-11-22T07:03:52;1.83;;;0.75;;
61252;SDS011;47127;47.516;8.596;2023-11-22T07:06:18;2.95;;;1.42;;
61252;SDS011;47127;47.516;8.596;2023-11-22T07:08:46;2.75;;;1.10;;
61252;SDS011;47127;47.516;8.596;2023-11-22T07:11:12;1.65;;;0.90;;
61252;SDS011;47127;47.516;8.596;2023-11-22T07:13:38;2.28;;;1.25;;
61252;SDS011;47127;47.516;8.596;2023-11-22T07:16:05;3.30;;;1.35;;
61252;SDS011;47127;47.516;8.596;2023-11-22T07:18:32;2.20;;;1.10;;
61252;SDS011;47127;47.516;8.596;2023-11-22T07:20:58;3.60;;;1.55;;
61252;SDS011;47127;47.516;8.596;2023-11-22T07:23:24;2.40;;;1.30;;
61252;SDS011;47127;47.516;8.596;2023-11-22T07:25:52;6.32;;;1.30;;
61252;SDS011;47127;47.516;8.596;2023-11-22T07:28:17;3.38;;;1.30;;
61252;SDS011;47127;47.516;8.596;2023-11-22T07:30:44;2.90;;;1.30;;
61252;SDS011;47127;47.516;8.596;2023-11-22T07:33:09;2.65;;;1.10;;
61252;SDS011;47127;47.516;8.596;2023-11-22T07:35:36;3.33;;;0.90;;
61252;SDS011;47127;47.516;8.596;2023-11-22T07:38:01;1.60;;;0.90;;
61252;SDS011;47127;47.516;8.596;2023-11-22T07:40:28;1.67;;;0.88;;
61252;SDS011;47127;47.516;8.596;2023-11-22T07:42:54;1.60;;;0.80;;
61252;SDS011;47127;47.516;8.596;2023-11-22T07:45:19;4.82;;;1.42;;
61252;SDS011;47127;47.516;8.596;2023-11-22T07:47:45;1.80;;;1.10;;
61252;SDS011;47127;47.516;8.596;2023-11-22T07:50:12;1.98;;;0.95;;
61252;SDS011;47127;47.516;8.596;2023-11-22T07:52:37;3.88;;;0.95;;
61252;SDS011;47127;47.516;8.596;2023-11-22T07:55:05;2.80;;;1.05;;
61252;SDS011;47127;47.516;8.596;2023-11-22T07:57:33;1.50;;;0.70;;
61252;SDS011;47127;47.516;8.596;2023-11-22T07:59:59;1.10;;;0.77;;
61252;SDS011;47127;47.516;8.596;2023-11-22T08:02:26;2.17;;;1.10;;
61252;SDS011;47127;47.516;8.596;2023-11-22T08:04:52;2.03;;;1.00;;
61252;SDS011;47127;47.516;8.596;2023-11-22T08:07:18;2.28;;;0.93;;
61252;SDS011;47127;47.516;8.596;2023-11-22T08:09:43;2.17;;;0.90;;
61252;SDS011;47127;47.516;8.596;2023-11-22T08:12:09;1.98;;;0.80;;
61252;SDS011;47127;47.516;8.596;2023-11-22T08:14:36;2.95;;;1.00;;
61252;SDS011;47127;47.516;8.596;2023-11-22T08:17:03;1.85;;;0.98;;
61252;SDS011;47127;47.516;8.596;2023-11-22T08:19:30;1.88;;;0.80;;
61252;SDS011;47127;47.516;8.596;2023-11-22T08:21:55;2.30;;;0.98;;
61252;SDS011;47127;47.516;8.596;2023-11-22T08:24:21;1.50;;;0.73;;
61252;SDS011;47127;47.516;8.596;2023-11-22T08:26:47;1.88;;;0.90;;
61252;SDS011;47127;47.516;8.596;2023-11-22T08:29:12;2.20;;;1.00;;
61252;SDS011;47127;47.516;8.596;2023-11-22T08:31:39;1.70;;;0.73;;
61252;SDS011;47127;47.516;8.596;2023-11-22T08:34:05;1.73;;;1.00;;
61252;SDS011;47127;47.516;8.596;2023-11-22T08:36:32;2.55;;;1.10;;
61252;SDS011;47127;47.516;8.596;2023-11-22T08:38:59;2.67;;;0.70;;
61252;SDS011;47127;47.516;8.596;2023-11-22T08:41:25;1.45;;;0.70;;
61252;SDS011;47127;47.516;8.596;2023-11-22T08:43:54;1.85;;;0.70;;
61252;SDS011;47127;47.516;8.596;2023-11-22T08:46:20;1.48;;;0.63;;
61252;SDS011;47127;47.516;8.596;2023-11-22T08:48:46;1.83;;;0.90;;
61252;SDS011;47127;47.516;8.596;2023-11-22T08:51:12;1.65;;;0.70;;
61252;SDS011;47127;47.516;8.596;2023-11-22T08:53:38;1.88;;;0.80;;
61252;SDS011;47127;47.516;8.596;2023-11-22T08:56:03;1.58;;;0.85;;
61252;SDS011;47127;47.516;8.596;2023-11-22T08:58:31;1.77;;;0.95;;
61252;SDS011;47127;47.516;8.596;2023-11-22T09:00:57;1.63;;;0.90;;
61252;SDS011;47127;47.516;8.596;2023-11-22T09:03:23;3.47;;;1.08;;
61252;SDS011;47127;47.516;8.596;2023-11-22T09:05:49;1.65;;;0.93;;
61252;SDS011;47127;47.516;8.596;2023-11-22T09:08:14;1.90;;;1.10;;
61252;SDS011;47127;47.516;8.596;2023-11-22T09:10:43;1.10;;;0.80;;
61252;SDS011;47127;47.516;8.596;2023-11-22T09:13:09;2.03;;;0.93;;
61252;SDS011;47127;47.516;8.596;2023-11-22T09:15:35;2.85;;;0.98;;
61252;SDS011;47127;47.516;8.596;2023-11-22T09:18:03;3.15;;;0.80;;
61252;SDS011;47127;47.516;8.596;2023-11-22T09:20:29;1.95;;;1.00;;
61252;SDS011;47127;47.516;8.596;2023-11-22T09:22:55;1.63;;;0.90;;
61252;SDS011;47127;47.516;8.596;2023-11-22T09:25:21;3.25;;;0.85;;
61252;SDS011;47127;47.516;8.596;2023-11-22T09:27:49;1.75;;;0.90;;
61252;SDS011;47127;47.516;8.596;2023-11-22T09:30:19;2.03;;;1.08;;
61252;SDS011;47127;47.516;8.596;2023-11-22T09:33:02;2.83;;;1.00;;
61252;SDS011;47127;47.516;8.596;2023-11-22T09:35:28;3.53;;;1.15;;
61252;SDS011;47127;47.516;8.596;2023-11-22T09:37:56;6.88;;;1.00;;
61252;SDS011;47127;47.516;8.596;2023-11-22T09:40:28;1.52;;;0.82;;
61252;SDS011;47127;47.516;8.596;2023-11-22T09:42:56;2.22;;;1.10;;
61252;SDS011;47127;47.516;8.596;2023-11-22T09:45:27;1.83;;;0.90;;
61252;SDS011;47127;47.516;8.596;2023-11-22T09:47:54;2.17;;;1.00;;
61252;SDS011;47127;47.516;8.596;2023-11-22T09:50:23;1.58;;;1.00;;
61252;SDS011;47127;47.516;8.596;2023-11-22T09:52:55;2.90;;;0.93;;
61252;SDS011;47127;47.516;8.596;2023-11-22T09:55:25;3.10;;;1.42;;
61252;SDS011;47127;47.516;8.596;2023-11-22T09:57:53;1.65;;;0.90;;
61252;SDS011;47127;47.516;8.596;2023-11-22T10:00:20;3.85;;;1.10;;
61252;SDS011;47127;47.516;8.596;2023-11-22T10:02:47;2.55;;;1.05;;
61252;SDS011;47127;47.516;8.596;2023-11-22T10:05:13;2.65;;;1.13;;
61252;SDS011;47127;47.516;8.596;2023-11-22T10:07:39;2.65;;;1.15;;
61252;SDS011;47127;47.516;8.596;2023-11-22T10:10:05;4.10;;;1.05;;
61252;SDS011;47127;47.516;8.596;2023-11-22T10:12:33;1.80;;;0.80;;
61252;SDS011;47127;47.516;8.596;2023-11-22T10:15:14;5.90;;;3.75;;
61252;SDS011;47127;47.516;8.596;2023-11-22T10:17:44;1.92;;;1.17;;
61252;SDS011;47127;47.516;8.596;2023-11-22T10:20:56;1.88;;;0.80;;
61252;SDS011;47127;47.516;8.596;2023-11-22T10:23:18;2.13;;;1.20;;
61252;SDS011;47127;47.516;8.596;2023-11-22T10:25:48;6.03;;;0.90;;
61252;SDS011;47127;47.516;8.596;2023-11-22T10:28:17;2.08;;;1.00;;
61252;SDS011;47127;47.516;8.596;2023-11-22T10:30:45;3.28;;;1.30;;
61252;SDS011;47127;47.516;8.596;2023-11-22T10:33:11;1.65;;;0.88;;
61252;SDS011;47127;47.516;8.596;2023-11-22T10:35:44;4.43;;;1.15;;
61252;SDS011;47127;47.516;8.596;2023-11-22T10:38:13;2.47;;;1.05;;
61252;SDS011;47127;47.516;8.596;2023-11-22T10:40:40;2.60;;;1.27;;
61252;SDS011;47127;47.516;8.596;2023-11-22T10:43:06;2.47;;;0.90;;
61252;SDS011;47127;47.516;8.596;2023-11-22T10:45:35;2.25;;;0.90;;
61252;SDS011;47127;47.516;8.596;2023-11-22T10:48:02;2.67;;;1.15;;
61252;SDS011;47127;47.516;8.596;2023-11-22T10:50:28;2.72;;;0.95;;
61252;SDS011;47127;47.516;8.596;2023-11-22T10:52:56;3.45;;;1.27;;
61252;SDS011;47127;47.516;8.596;2023-11-22T10:55:30;2.38;;;0.90;;
61252;SDS011;47127;47.516;8.596;2023-11-22T10:58:03;3.65;;;1.60;;
61252;SDS011;47127;47.516;8.596;2023-11-22T11:00:31;5.13;;;1.25;;
61252;SDS011;47127;47.516;8.596;2023-11-22T11:03:08;3.28;;;1.30;;
61252;SDS011;47127;47.516;8.596;2023-11-22T11:05:38;2.33;;;1.17;;
61252;SDS011;47127;47.516;8.596;2023-11-22T11:10:41;8.50;;;1.50;;
61252;SDS011;47127;47.516;8.596;2023-11-22T11:13:08;5.65;;;1.42;;
61252;SDS011;47127;47.516;8.596;2023-11-22T11:15:38;3.58;;;1.13;;
61252;SDS011;47127;47.516;8.596;2023-11-22T11:18:06;3.13;;;1.20;;
61252;SDS011;47127;47.516;8.596;2023-11-22T11:20:52;5.03;;;1.35;;
61252;SDS011;47127;47.516;8.596;2023-11-22T11:23:21;2.70;;;1.33;;
61252;SDS011;47127;47.516;8.596;2023-11-22T11:25:49;2.60;;;1.20;;
61252;SDS011;47127;47.516;8.596;2023-11-22T11:28:15;2.92;;;1.52;;
61252;SDS011;47127;47.516;8.596;2023-11-22T11:30:47;4.35;;;1.48;;
61252;SDS011;47127;47.516;8.596;2023-11-22T11:33:15;2.72;;;1.42;;
61252;SDS011;47127;47.516;8.596;2023-11-22T11:35:46;2.00;;;1.30;;
61252;SDS011;47127;47.516;8.596;2023-11-22T11:38:16;2.72;;;1.27;;
61252;SDS011;47127;47.516;8.596;2023-11-22T11:40:51;3.30;;;1.40;;
61252;SDS011;47127;47.516;8.596;2023-11-22T11:46:06;4.88;;;1.77;;
61252;SDS011;47127;47.516;8.596;2023-11-22T11:48:33;3.13;;;1.48;;
61252;SDS011;47127;47.516;8.596;2023-11-22T11:51:00;3.50;;;1.10;;
61252;SDS011;47127;47.516;8.596;2023-11-22T11:53:26;8.38;;;1.90;;
61252;SDS011;47127;47.516;8.596;2023-11-22T11:55:53;3.38;;;1.67;;
61252;SDS011;47127;47.516;8.596;2023-11-22T11:58:19;3.33;;;1.25;;
61252;SDS011;47127;47.516;8.596;2023-11-22T12:00:45;4.55;;;1.98;;
61252;SDS011;47127;47.516;8.596;2023-11-22T12:03:10;4.05;;;1.60;;
61252;SDS011;47127;47.516;8.596;2023-11-22T12:05:38;4.30;;;1.45;;
61252;SDS011;47127;47.516;8.596;2023-11-22T12:08:04;4.47;;;1.45;;
61252;SDS011;47127;47.516;8.596;2023-11-22T12:10:29;3.15;;;1.77;;
61252;SDS011;47127;47.516;8.596;2023-11-22T12:12:56;10.73;;;5.45;;
61252;SDS011;47127;47.516;8.596;2023-11-22T12:15:22;5.97;;;1.73;;
61252;SDS011;47127;47.516;8.596;2023-11-22T12:17:50;3.35;;;1.50;;
61252;SDS011;47127;47.516;8.596;2023-11-22T12:20:19;3.35;;;1.55;;
61252;SDS011;47127;47.516;8.596;2023-11-22T12:22:46;6.15;;;1.45;;
61252;SDS011;47127;47.516;8.596;2023-11-22T12:25:13;3.40;;;1.38;;
61252;SDS011;47127;47.516;8.596;2023-11-22T12:27:39;4.55;;;1.33;;
61252;SDS011;47127;47.516;8.596;2023-11-22T12:30:26;3.67;;;1.70;;
61252;SDS011;47127;47.516;8.596;2023-11-22T12:32:56;4.90;;;1.60;;
61252;SDS011;47127;47.516;8.596;2023-11-22T12:35:22;2.45;;;1.20;;
61252;SDS011;47127;47.516;8.596;2023-11-22T12:37:51;7.20;;;1.63;;
61252;SDS011;47127;47.516;8.596;2023-11-22T12:40:19;2.85;;;1.23;;
61252;SDS011;47127;47.516;8.596;2023-11-22T12:42:52;3.78;;;1.83;;
61252;SDS011;47127;47.516;8.596;2023-11-22T12:45:22;4.20;;;1.33;;
61252;SDS011;47127;47.516;8.596;2023-11-22T12:47:52;3.42;;;1.35;;
61252;SDS011;47127;47.516;8.596;2023-11-22T12:50:36;2.90;;;1.00;;
61252;SDS011;47127;47.516;8.596;2023-11-22T12:53:07;3.90;;;1.25;;
61252;SDS011;47127;47.516;8.596;2023-11-22T12:55:37;2.38;;;1.00;;
61252;SDS011;47127;47.516;8.596;2023-11-22T12:58:06;2.55;;;1.40;;
61252;SDS011;47127;47.516;8.596;2023-11-22T13:00:32;4.38;;;1.13;;
61252;SDS011;47127;47.516;8.596;2023-11-22T13:02:58;4.05;;;1.38;;
61252;SDS011;47127;47.516;8.596;2023-11-22T13:05:24;3.35;;;1.58;;
61252;SDS011;47127;47.516;8.596;2023-11-22T13:07:53;3.72;;;1.52;;
61252;SDS011;47127;47.516;8.596;2023-11-22T13:10:18;2.65;;;1.35;;
61252;SDS011;47127;47.516;8.596;2023-11-22T13:12:49;2.78;;;1.23;;
61252;SDS011;47127;47.516;8.596;2023-11-22T13:15:20;4.38;;;1.27;;
61252;SDS011;47127;47.516;8.596;2023-11-22T13:17:51;2.92;;;1.60;;
61252;SDS011;47127;47.516;8.596;2023-11-22T13:20:26;2.53;;;1.13;;
61252;SDS011;47127;47.516;8.596;2023-11-22T13:22:52;3.08;;;1.60;;
61252;SDS011;47127;47.516;8.596;2023-11-22T13:25:19;4.22;;;1.75;;
61252;SDS011;47127;47.516;8.596;2023-11-22T13:27:47;3.95;;;1.77;;
61252;SDS011;47127;47.516;8.596;2023-11-22T13:30:16;3.78;;;1.90;;
61252;SDS011;47127;47.516;8.596;2023-11-22T13:32:54;3.05;;;1.55;;
61252;SDS011;47127;47.516;8.596;2023-11-22T13:35:23;3.20;;;1.45;;
61252;SDS011;47127;47.516;8.596;2023-11-22T13:37:52;4.18;;;1.83;;
61252;SDS011;47127;47.516;8.596;2023-11-22T13:40:18;7.38;;;1.80;;
61252;SDS011;47127;47.516;8.596;2023-11-22T13:42:47;4.22;;;1.80;;
61252;SDS011;47127;47.516;8.596;2023-11-22T13:45:15;3.40;;;1.85;;
61252;SDS011;47127;47.516;8.596;2023-11-22T13:47:44;7.13;;;2.50;;
61252;SDS011;47127;47.516;8.596;2023-11-22T13:50:12;4.65;;;2.20;;
61252;SDS011;47127;47.516;8.596;2023-11-22T13:52:50;5.80;;;2.60;;
61252;SDS011;47127;47.516;8.596;2023-11-22T13:55:16;5.65;;;2.53;;
61252;SDS011;47127;47.516;8.596;2023-11-22T13:57:49;5.97;;;2.53;;
61252;SDS011;47127;47.516;8.596;2023-11-22T14:00:20;5.63;;;2.22;;
61252;SDS011;47127;47.516;8.596;2023-11-22T14:02:54;5.68;;;2.50;;
61252;SDS011;47127;47.516;8.596;2023-11-22T14:05:22;6.72;;;3.47;;
61252;SDS011;47127;47.516;8.596;2023-11-22T14:07:48;4.25;;;2.17;;
61252;SDS011;47127;47.516;8.596;2023-11-22T14:10:14;4.63;;;2.30;;
61252;SDS011;47127;47.516;8.596;2023-11-22T14:12:43;5.35;;;2.33;;
61252;SDS011;47127;47.516;8.596;2023-11-22T14:15:09;4.15;;;1.98;;
61252;SDS011;47127;47.516;8.596;2023-11-22T14:17:36;4.63;;;2.25;;
61252;SDS011;47127;47.516;8.596;2023-11-22T14:20:04;4.30;;;2.15;;
61252;SDS011;47127;47.516;8.596;2023-11-22T14:22:32;4.65;;;2.08;;
61252;SDS011;47127;47.516;8.596;2023-11-22T14:24:57;4.50;;;2.00;;
61252;SDS011;47127;47.516;8.596;2023-11-22T14:27:23;4.32;;;1.92;;
61252;SDS011;47127;47.516;8.596;2023-11-22T14:29:49;3.22;;;1.58;;
61252;SDS011;47127;47.516;8.596;2023-11-22T14:32:18;3.72;;;1.55;;
61252;SDS011;47127;47.516;8.596;2023-11-22T14:34:44;3.25;;;1.50;;
61252;SDS011;47127;47.516;8.596;2023-11-22T14:37:10;2.60;;;1.42;;
61252;SDS011;47127;47.516;8.596;2023-11-22T14:39:36;5.32;;;1.52;;
61252;SDS011;47127;47.516;8.596;2023-11-22T14:42:02;3.08;;;1.33;;
61252;SDS011;47127;47.516;8.596;2023-11-22T14:44:30;4.35;;;1.80;;
61252;SDS011;47127;47.516;8.596;2023-11-22T14:46:56;5.22;;;1.88;;
61252;SDS011;47127;47.516;8.596;2023-11-22T14:49:23;4.13;;;1.67;;
61252;SDS011;47127;47.516;8.596;2023-11-22T14:51:48;4.32;;;1.83;;
61252;SDS011;47127;47.516;8.596;2023-11-22T14:54:14;4.78;;;1.85;;